Pyron, Texas
Current Conditions -  °F | °C
As of 7:15 PM on Saturday 25 Oct 2014 (Local Time) from KSWW Reporting Station
Clear Clear  
Wind Chill: 77°   Ceiling: Unl
Heat Index: 78°   Visibility: 10mi
Dew Point: 48°   Wind: 7mph
Humidity: 36%   Direction: 140°SE
Pressure: 30.12"   Gusts: NA
Location:  32.3875°N, 100.536°W
Report Text: KSWW 260015Z AUTO 14006KT 10SM CLR 25/09 A3012 RMK AO2 T02500088
Loading
Personal Weather Stations






























Interactive Weather Map New forecast layout! Learn more

10-Day Weather Forecast

Advertisements
Track Severe Weather on mobile